sensor_id;sensor_type;location;lat;lon;timestamp;pressure;altitude;pressure_sealevel;temperature;humidity
48636;BME280;34429;52.332;5.614;2022-09-09T00:02:02;100702.41;;;15.56;100.00
48636;BME280;34429;52.332;5.614;2022-09-09T00:04:37;100706.84;;;15.57;100.00
48636;BME280;34429;52.332;5.614;2022-09-09T00:07:11;100709.91;;;15.62;100.00
48636;BME280;34429;52.332;5.614;2022-09-09T00:09:46;100697.69;;;15.58;100.00
48636;BME280;34429;52.332;5.614;2022-09-09T00:12:18;100691.56;;;15.56;100.00
48636;BME280;34429;52.332;5.614;2022-09-09T00:14:55;100688.19;;;15.54;100.00
48636;BME280;34429;52.332;5.614;2022-09-09T00:17:33;100690.25;;;15.52;100.00
48636;BME280;34429;52.332;5.614;2022-09-09T00:20:12;100674.16;;;15.42;100.00
48636;BME280;34429;52.332;5.614;2022-09-09T00:22:45;100670.41;;;15.51;100.00
48636;BME280;34429;52.332;5.614;2022-09-09T00:25:21;100673.63;;;15.38;100.00
48636;BME280;34429;52.332;5.614;2022-09-09T00:27:51;100673.81;;;15.45;100.00
48636;BME280;34429;52.332;5.614;2022-09-09T00:30:22;100676.00;;;15.50;100.00
48636;BME280;34429;52.332;5.614;2022-09-09T00:32:54;100670.78;;;15.40;100.00
48636;BME280;34429;52.332;5.614;2022-09-09T00:35:28;100672.63;;;15.48;100.00
48636;BME280;34429;52.332;5.614;2022-09-09T00:38:00;100672.28;;;15.51;100.00
48636;BME280;34429;52.332;5.614;2022-09-09T00:40:33;100664.78;;;15.61;100.00
48636;BME280;34429;52.332;5.614;2022-09-09T00:43:15;100667.50;;;15.53;100.00
48636;BME280;34429;52.332;5.614;2022-09-09T00:48:57;100672.44;;;15.49;100.00
48636;BME280;34429;52.332;5.614;2022-09-09T00:51:39;100669.38;;;15.44;100.00
48636;BME280;34429;52.332;5.614;2022-09-09T00:54:33;100681.09;;;15.45;100.00
48636;BME280;34429;52.332;5.614;2022-09-09T00:57:19;100676.69;;;15.52;100.00
48636;BME280;34429;52.332;5.614;2022-09-09T00:59:58;100673.16;;;15.35;100.00
48636;BME280;34429;52.332;5.614;2022-09-09T01:02:32;100675.00;;;15.42;100.00
48636;BME280;34429;52.332;5.614;2022-09-09T01:05:10;100680.72;;;15.56;100.00
48636;BME280;34429;52.332;5.614;2022-09-09T01:07:44;100676.50;;;15.53;100.00
48636;BME280;34429;52.332;5.614;2022-09-09T01:10:25;100672.09;;;15.52;100.00
48636;BME280;34429;52.332;5.614;2022-09-09T01:12:58;100682.28;;;15.50;100.00
48636;BME280;34429;52.332;5.614;2022-09-09T01:15:31;100689.72;;;15.48;100.00
48636;BME280;34429;52.332;5.614;2022-09-09T01:18:04;100688.19;;;15.54;100.00
48636;BME280;34429;52.332;5.614;2022-09-09T01:20:39;100685.31;;;15.55;100.00
48636;BME280;34429;52.332;5.614;2022-09-09T01:23:25;100682.28;;;15.42;100.00
48636;BME280;34429;52.332;5.614;2022-09-09T01:26:21;100689.91;;;15.38;100.00
48636;BME280;34429;52.332;5.614;2022-09-09T01:28:51;100682.13;;;15.44;100.00
48636;BME280;34429;52.332;5.614;2022-09-09T01:31:23;100680.75;;;15.48;100.00
48636;BME280;34429;52.332;5.614;2022-09-09T01:33:54;100674.28;;;15.57;100.00
48636;BME280;34429;52.332;5.614;2022-09-09T01:36:27;100680.72;;;15.56;100.00
48636;BME280;34429;52.332;5.614;2022-09-09T01:38:59;100679.19;;;15.70;100.00
48636;BME280;34429;52.332;5.614;2022-09-09T01:41:30;100679.19;;;15.70;100.00
48636;BME280;34429;52.332;5.614;2022-09-09T01:43:58;100670.28;;;15.92;100.00
48636;BME280;34429;52.332;5.614;2022-09-09T01:46:27;100667.75;;;15.91;100.00
48636;BME280;34429;52.332;5.614;2022-09-09T01:48:57;100674.88;;;15.92;100.00
48636;BME280;34429;52.332;5.614;2022-09-09T01:51:30;100671.47;;;15.90;100.00
48636;BME280;34429;52.332;5.614;2022-09-09T01:53:59;100671.72;;;15.80;100.00
48636;BME280;34429;52.332;5.614;2022-09-09T01:56:39;100671.84;;;15.87;100.00
48636;BME280;34429;52.332;5.614;2022-09-09T01:59:24;100669.50;;;15.75;100.00
48636;BME280;34429;52.332;5.614;2022-09-09T02:02:05;100663.91;;;15.77;100.00
48636;BME280;34429;52.332;5.614;2022-09-09T02:04:41;100663.91;;;15.69;100.00
48636;BME280;34429;52.332;5.614;2022-09-09T02:07:21;100669.34;;;15.69;100.00
48636;BME280;34429;52.332;5.614;2022-09-09T02:09:59;100662.56;;;15.65;100.00
48636;BME280;34429;52.332;5.614;2022-09-09T02:12:32;100666.13;;;15.65;100.00
48636;BME280;34429;52.332;5.614;2022-09-09T02:15:07;100668.16;;;15.63;100.00
48636;BME280;34429;52.332;5.614;2022-09-09T02:17:40;100654.28;;;15.58;100.00
48636;BME280;34429;52.332;5.614;2022-09-09T02:20:12;100657.69;;;15.52;100.00
48636;BME280;34429;52.332;5.614;2022-09-09T02:22:43;100664.78;;;15.53;100.00
48636;BME280;34429;52.332;5.614;2022-09-09T02:25:15;100649.91;;;15.40;100.00
48636;BME280;34429;52.332;5.614;2022-09-09T02:27:50;100653.81;;;15.46;100.00
48636;BME280;34429;52.332;5.614;2022-09-09T02:30:19;100649.56;;;15.44;100.00
48636;BME280;34429;52.332;5.614;2022-09-09T02:32:50;100654.13;;;15.51;100.00
48636;BME280;34429;52.332;5.614;2022-09-09T02:35:23;100649.38;;;15.53;100.00
48636;BME280;34429;52.332;5.614;2022-09-09T02:37:55;100643.16;;;15.36;100.00
48636;BME280;34429;52.332;5.614;2022-09-09T02:40:24;100642.44;;;15.42;100.00
48636;BME280;34429;52.332;5.614;2022-09-09T02:42:55;100651.41;;;15.51;100.00
48636;BME280;34429;52.332;5.614;2022-09-09T02:45:29;100656.88;;;15.35;100.00
48636;BME280;34429;52.332;5.614;2022-09-09T02:48:05;100656.19;;;15.41;100.00
48636;BME280;34429;52.332;5.614;2022-09-09T02:50:39;100656.00;;;15.51;100.00
48636;BME280;34429;52.332;5.614;2022-09-09T02:53:14;100648.38;;;15.46;100.00
48636;BME280;34429;52.332;5.614;2022-09-09T02:55:47;100650.75;;;15.49;100.00
48636;BME280;34429;52.332;5.614;2022-09-09T02:58:19;100641.59;;;15.42;100.00
48636;BME280;34429;52.332;5.614;2022-09-09T03:00:49;100652.94;;;15.46;100.00
48636;BME280;34429;52.332;5.614;2022-09-09T03:03:18;100639.72;;;15.51;100.00
48636;BME280;34429;52.332;5.614;2022-09-09T03:05:47;100647.16;;;15.49;100.00
48636;BME280;34429;52.332;5.614;2022-09-09T03:08:16;100646.69;;;15.45;100.00
48636;BME280;34429;52.332;5.614;2022-09-09T03:10:44;100649.09;;;15.40;100.00
48636;BME280;34429;52.332;5.614;2022-09-09T03:13:12;100643.50;;;15.25;100.00
48636;BME280;34429;52.332;5.614;2022-09-09T03:15:43;100641.78;;;15.32;100.00
48636;BME280;34429;52.332;5.614;2022-09-09T03:18:13;100643.97;;;15.37;100.00
48636;BME280;34429;52.332;5.614;2022-09-09T03:20:41;100647.56;;;15.37;100.00
48636;BME280;34429;52.332;5.614;2022-09-09T03:23:11;100651.97;;;15.30;100.00
48636;BME280;34429;52.332;5.614;2022-09-09T03:25:39;100651.44;;;15.27;100.00
48636;BME280;34429;52.332;5.614;2022-09-09T03:28:14;100654.69;;;15.30;100.00
48636;BME280;34429;52.332;5.614;2022-09-09T03:30:44;100652.31;;;15.27;100.00
48636;BME280;34429;52.332;5.614;2022-09-09T03:33:13;100649.97;;;15.24;100.00
48636;BME280;34429;52.332;5.614;2022-09-09T03:35:45;100644.88;;;15.21;100.00
48636;BME280;34429;52.332;5.614;2022-09-09T03:38:14;100648.59;;;15.12;100.00
48636;BME280;34429;52.332;5.614;2022-09-09T03:40:48;100647.06;;;15.17;100.00
48636;BME280;34429;52.332;5.614;2022-09-09T03:43:18;100650.97;;;15.15;100.00
48636;BME280;34429;52.332;5.614;2022-09-09T03:45:49;100647.25;;;15.16;100.00
48636;BME280;34429;52.332;5.614;2022-09-09T03:48:18;100638.09;;;15.17;100.00
48636;BME280;34429;52.332;5.614;2022-09-09T03:50:48;100642.31;;;15.28;100.00
48636;BME280;34429;52.332;5.614;2022-09-09T03:53:16;100648.56;;;15.36;100.00
48636;BME280;34429;52.332;5.614;2022-09-09T03:55:45;100640.59;;;15.35;100.00
48636;BME280;34429;52.332;5.614;2022-09-09T03:58:15;100641.66;;;15.26;100.00
48636;BME280;34429;52.332;5.614;2022-09-09T04:00:47;100640.06;;;15.48;100.00
48636;BME280;34429;52.332;5.614;2022-09-09T04:03:23;100628.19;;;15.49;100.00
48636;BME280;34429;52.332;5.614;2022-09-09T04:05:52;100630.53;;;15.60;100.00
48636;BME280;34429;52.332;5.614;2022-09-09T04:08:21;100624.16;;;15.45;100.00
48636;BME280;34429;52.332;5.614;2022-09-09T04:10:50;100625.81;;;15.46;100.00
48636;BME280;34429;52.332;5.614;2022-09-09T04:13:19;100630.59;;;15.35;100.00
48636;BME280;34429;52.332;5.614;2022-09-09T04:15:51;100625.97;;;15.52;100.00
48636;BME280;34429;52.332;5.614;2022-09-09T04:18:23;100627.53;;;15.47;100.00
48636;BME280;34429;52.332;5.614;2022-09-09T04:20:52;100626.88;;;15.45;100.00
48636;BME280;34429;52.332;5.614;2022-09-09T04:23:23;100623.81;;;15.48;100.00
48636;BME280;34429;52.332;5.614;2022-09-09T04:25:55;100617.69;;;15.46;100.00
48636;BME280;34429;52.332;5.614;2022-09-09T04:28:26;100618.72;;;15.45;100.00
48636;BME280;34429;52.332;5.614;2022-09-09T04:30:55;100620.44;;;15.37;100.00
48636;BME280;34429;52.332;5.614;2022-09-09T04:33:26;100618.75;;;15.28;100.00
48636;BME280;34429;52.332;5.614;2022-09-09T04:35:56;100621.50;;;15.20;100.00
48636;BME280;34429;52.332;5.614;2022-09-09T04:38:25;100625.53;;;15.32;100.00
48636;BME280;34429;52.332;5.614;2022-09-09T04:40:53;100629.59;;;15.28;100.00
48636;BME280;34429;52.332;5.614;2022-09-09T04:43:22;100622.50;;;15.27;100.00
48636;BME280;34429;52.332;5.614;2022-09-09T04:45:51;100628.44;;;15.22;100.00
48636;BME280;34429;52.332;5.614;2022-09-09T04:48:20;100625.88;;;15.29;100.00
48636;BME280;34429;52.332;5.614;2022-09-09T04:51:00;100624.50;;;15.33;100.00
48636;BME280;34429;52.332;5.614;2022-09-09T04:53:29;100616.84;;;15.37;100.00
48636;BME280;34429;52.332;5.614;2022-09-09T04:56:03;100615.66;;;15.48;100.00
48636;BME280;34429;52.332;5.614;2022-09-09T04:58:32;100615.19;;;15.36;100.00
48636;BME280;34429;52.332;5.614;2022-09-09T05:01:06;100619.91;;;15.42;100.00
48636;BME280;34429;52.332;5.614;2022-09-09T05:03:35;100621.44;;;15.45;100.00
48636;BME280;34429;52.332;5.614;2022-09-09T05:06:08;100616.31;;;15.58;100.00
48636;BME280;34429;52.332;5.614;2022-09-09T05:08:37;100609.09;;;15.73;100.00
48636;BME280;34429;52.332;5.614;2022-09-09T05:11:13;100605.06;;;16.09;100.00
48636;BME280;34429;52.332;5.614;2022-09-09T05:13:42;100597.16;;;15.99;100.00
48636;BME280;34429;52.332;5.614;2022-09-09T05:16:11;100600.59;;;15.93;100.00
48636;BME280;34429;52.332;5.614;2022-09-09T05:18:40;100597.16;;;15.99;100.00
48636;BME280;34429;52.332;5.614;2022-09-09T05:21:14;100596.34;;;15.90;100.00
48636;BME280;34429;52.332;5.614;2022-09-09T05:23:42;100599.44;;;15.87;100.00
48636;BME280;34429;52.332;5.614;2022-09-09T05:26:12;100598.91;;;15.84;100.00
48636;BME280;34429;52.332;5.614;2022-09-09T05:28:41;100599.59;;;15.86;100.00
48636;BME280;34429;52.332;5.614;2022-09-09T05:31:11;100603.97;;;15.95;100.00
48636;BME280;34429;52.332;5.614;2022-09-09T05:33:40;100609.50;;;15.62;100.00
48636;BME280;34429;52.332;5.614;2022-09-09T05:36:15;100607.06;;;15.84;100.00
48636;BME280;34429;52.332;5.614;2022-09-09T05:38:44;100606.09;;;15.68;100.00
48636;BME280;34429;52.332;5.614;2022-09-09T05:41:13;100614.19;;;15.85;100.00
48636;BME280;34429;52.332;5.614;2022-09-09T05:43:43;100609.63;;;15.77;100.00
48636;BME280;34429;52.332;5.614;2022-09-09T05:46:14;100603.88;;;15.80;100.00
48636;BME280;34429;52.332;5.614;2022-09-09T05:48:44;100599.59;;;15.86;100.00
48636;BME280;34429;52.332;5.614;2022-09-09T05:51:19;100606.72;;;15.87;100.00
48636;BME280;34429;52.332;5.614;2022-09-09T05:53:50;100605.91;;;15.78;100.00
48636;BME280;34429;52.332;5.614;2022-09-09T05:56:22;100598.38;;;15.88;100.00
48636;BME280;34429;52.332;5.614;2022-09-09T05:58:51;100595.50;;;15.90;100.00
48636;BME280;34429;52.332;5.614;2022-09-09T06:01:21;100606.03;;;15.76;100.00
48636;BME280;34429;52.332;5.614;2022-09-09T06:03:50;100612.66;;;15.82;100.00
48636;BME280;34429;52.332;5.614;2022-09-09T06:06:23;100614.91;;;15.79;100.00
48636;BME280;34429;52.332;5.614;2022-09-09T06:08:53;100618.97;;;15.66;100.00
48636;BME280;34429;52.332;5.614;2022-09-09T06:11:24;100614.00;;;15.94;100.00
48636;BME280;34429;52.332;5.614;2022-09-09T06:13:52;100605.69;;;15.88;100.00
48636;BME280;34429;52.332;5.614;2022-09-09T06:16:22;100608.31;;;16.04;100.00
48636;BME280;34429;52.332;5.614;2022-09-09T06:18:52;100613.72;;;16.13;100.00
48636;BME280;34429;52.332;5.614;2022-09-09T06:21:25;100616.97;;;16.08;100.00
48636;BME280;34429;52.332;5.614;2022-09-09T06:23:54;100613.34;;;16.16;100.00
48636;BME280;34429;52.332;5.614;2022-09-09T06:26:23;100611.84;;;16.13;100.00
48636;BME280;34429;52.332;5.614;2022-09-09T06:28:53;100607.75;;;16.17;100.00
48636;BME280;34429;52.332;5.614;2022-09-09T06:31:24;100609.25;;;16.20;100.00
48636;BME280;34429;52.332;5.614;2022-09-09T06:33:56;100615.34;;;16.22;100.00
48636;BME280;34429;52.332;5.614;2022-09-09T06:36:29;100616.66;;;16.34;100.00
48636;BME280;34429;52.332;5.614;2022-09-09T06:38:57;100607.09;;;16.38;100.00
48636;BME280;34429;52.332;5.614;2022-09-09T06:41:27;100612.69;;;16.37;100.00
48636;BME280;34429;52.332;5.614;2022-09-09T06:43:56;100608.84;;;16.54;100.00
48636;BME280;34429;52.332;5.614;2022-09-09T06:46:28;100601.78;;;16.68;100.00
48636;BME280;34429;52.332;5.614;2022-09-09T06:48:58;100605.34;;;16.69;100.00
48636;BME280;34429;52.332;5.614;2022-09-09T06:51:31;100600.00;;;16.75;100.00
48636;BME280;34429;52.332;5.614;2022-09-09T06:54:01;100596.94;;;16.78;100.00
48636;BME280;34429;52.332;5.614;2022-09-09T06:56:31;100593.00;;;16.81;100.00
48636;BME280;34429;52.332;5.614;2022-09-09T06:59:02;100595.53;;;16.82;100.00
48636;BME280;34429;52.332;5.614;2022-09-09T07:01:32;100602.66;;;17.07;100.00
48636;BME280;34429;52.332;5.614;2022-09-09T07:04:02;100606.50;;;16.97;100.00
48636;BME280;34429;52.332;5.614;2022-09-09T07:06:37;100590.84;;;17.14;100.00
48636;BME280;34429;52.332;5.614;2022-09-09T07:09:07;100600.31;;;17.19;100.00
48636;BME280;34429;52.332;5.614;2022-09-09T07:11:38;100597.88;;;17.24;100.00
48636;BME280;34429;52.332;5.614;2022-09-09T07:14:07;100595.34;;;17.22;100.00
48636;BME280;34429;52.332;5.614;2022-09-09T07:16:38;100598.44;;;17.34;100.00
48636;BME280;34429;52.332;5.614;2022-09-09T07:19:07;100600.13;;;17.35;100.00
48636;BME280;34429;52.332;5.614;2022-09-09T07:21:38;100597.53;;;17.57;100.00
48636;BME280;34429;52.332;5.614;2022-09-09T07:24:08;100597.88;;;17.68;100.00
48636;BME280;34429;52.332;5.614;2022-09-09T07:26:37;100590.09;;;17.65;100.00
48636;BME280;34429;52.332;5.614;2022-09-09T07:29:06;100604.31;;;17.82;100.00
48636;BME280;34429;52.332;5.614;2022-09-09T07:31:36;100589.59;;;17.92;100.00
48636;BME280;34429;52.332;5.614;2022-09-09T07:34:05;100588.97;;;17.90;100.00
48636;BME280;34429;52.332;5.614;2022-09-09T07:36:35;100591.97;;;18.16;100.00
48636;BME280;34429;52.332;5.614;2022-09-09T07:39:08;100588.50;;;18.44;100.00
48636;BME280;34429;52.332;5.614;2022-09-09T07:41:40;100583.19;;;18.36;100.00
48636;BME280;34429;52.332;5.614;2022-09-09T07:44:13;100601.75;;;18.26;100.00
48636;BME280;34429;52.332;5.614;2022-09-09T07:46:43;100587.69;;;18.07;100.00
48636;BME280;34429;52.332;5.614;2022-09-09T07:49:11;100588.25;;;18.39;100.00
48636;BME280;34429;52.332;5.614;2022-09-09T07:51:41;100587.91;;;18.70;100.00
48636;BME280;34429;52.332;5.614;2022-09-09T07:54:14;100597.47;;;18.38;100.00
48636;BME280;34429;52.332;5.614;2022-09-09T07:56:45;100596.88;;;18.43;100.00
48636;BME280;34429;52.332;5.614;2022-09-09T07:59:15;100601.63;;;18.55;100.00
48636;BME280;34429;52.332;5.614;2022-09-09T08:01:45;100599.91;;;18.54;100.00
48636;BME280;34429;52.332;5.614;2022-09-09T08:04:15;100602.75;;;18.68;100.00
48636;BME280;34429;52.332;5.614;2022-09-09T08:06:46;100614.31;;;18.48;100.00
48636;BME280;34429;52.332;5.614;2022-09-09T08:09:17;100606.34;;;18.47;100.00
48636;BME280;34429;52.332;5.614;2022-09-09T08:11:45;100606.94;;;18.42;100.00
48636;BME280;34429;52.332;5.614;2022-09-09T08:14:14;100612.34;;;18.20;100.00
48636;BME280;34429;52.332;5.614;2022-09-09T08:16:44;100606.66;;;18.37;100.00
48636;BME280;34429;52.332;5.614;2022-09-09T08:19:13;100611.09;;;18.38;100.00
48636;BME280;34429;52.332;5.614;2022-09-09T08:21:43;100606.91;;;18.64;100.00
48636;BME280;34429;52.332;5.614;2022-09-09T08:24:12;100599.84;;;19.19;100.00
48636;BME280;34429;52.332;5.614;2022-09-09T08:26:45;100607.38;;;19.46;100.00
48636;BME280;34429;52.332;5.614;2022-09-09T08:29:15;100609.34;;;19.58;100.00
48636;BME280;34429;52.332;5.614;2022-09-09T08:31:45;100611.84;;;19.25;100.00
48636;BME280;34429;52.332;5.614;2022-09-09T08:34:14;100606.81;;;19.29;100.00
48636;BME280;34429;52.332;5.614;2022-09-09T08:36:46;100607.78;;;18.86;100.00
48636;BME280;34429;52.332;5.614;2022-09-09T08:39:16;100606.53;;;18.88;100.00
48636;BME280;34429;52.332;5.614;2022-09-09T08:45:09;100623.41;;;18.55;100.00
48636;BME280;34429;52.332;5.614;2022-09-09T08:47:51;100616.75;;;18.58;100.00
48636;BME280;34429;52.332;5.614;2022-09-09T08:50:25;100619.59;;;18.71;100.00
48636;BME280;34429;52.332;5.614;2022-09-09T08:53:00;100626.78;;;18.79;100.00
48636;BME280;34429;52.332;5.614;2022-09-09T08:55:38;100628.47;;;18.37;100.00
48636;BME280;34429;52.332;5.614;2022-09-09T08:58:14;100628.59;;;18.29;100.00
48636;BME280;34429;52.332;5.614;2022-09-09T09:00:52;100625.56;;;18.60;100.00
48636;BME280;34429;52.332;5.614;2022-09-09T09:03:35;100632.56;;;18.48;100.00
48636;BME280;34429;52.332;5.614;2022-09-09T09:06:14;100641.06;;;18.38;100.00
48636;BME280;34429;52.332;5.614;2022-09-09T09:08:50;100629.72;;;18.78;100.00
48636;BME280;34429;52.332;5.614;2022-09-09T09:11:23;100631.34;;;18.94;100.00
48636;BME280;34429;52.332;5.614;2022-09-09T09:13:57;100636.91;;;18.85;100.00
48636;BME280;34429;52.332;5.614;2022-09-09T09:16:32;100631.19;;;18.59;100.00
48636;BME280;34429;52.332;5.614;2022-09-09T09:19:02;100639.50;;;18.72;100.00
48636;BME280;34429;52.332;5.614;2022-09-09T09:21:36;100640.06;;;18.46;100.00
48636;BME280;34429;52.332;5.614;2022-09-09T09:24:14;100641.31;;;18.43;100.00
48636;BME280;34429;52.332;5.614;2022-09-09T09:26:45;100641.47;;;18.56;100.00
48636;BME280;34429;52.332;5.614;2022-09-09T09:29:18;100645.75;;;18.66;100.00
48636;BME280;34429;52.332;5.614;2022-09-09T09:31:50;100643.72;;;18.74;100.00
48636;BME280;34429;52.332;5.614;2022-09-09T09:34:20;100640.69;;;18.63;100.00
48636;BME280;34429;52.332;5.614;2022-09-09T09:36:53;100653.13;;;18.50;100.00
48636;BME280;34429;52.332;5.614;2022-09-09T09:39:24;100645.47;;;18.82;100.00
48636;BME280;34429;52.332;5.614;2022-09-09T09:41:53;100650.94;;;18.39;100.00
48636;BME280;34429;52.332;5.614;2022-09-09T09:44:27;100653.78;;;18.52;100.00
48636;BME280;34429;52.332;5.614;2022-09-09T09:47:07;100657.81;;;18.56;100.00
48636;BME280;34429;52.332;5.614;2022-09-09T09:49:36;100650.94;;;18.82;100.00
48636;BME280;34429;52.332;5.614;2022-09-09T09:52:05;100640.22;;;18.59;100.00
48636;BME280;34429;52.332;5.614;2022-09-09T09:54:38;100646.00;;;18.71;100.00
48636;BME280;34429;52.332;5.614;2022-09-09T09:57:09;100647.16;;;18.83;100.00
48636;BME280;34429;52.332;5.614;2022-09-09T09:59:40;100653.41;;;18.77;100.00
48636;BME280;34429;52.332;5.614;2022-09-09T10:02:17;100648.28;;;18.67;100.00
48636;BME280;34429;52.332;5.614;2022-09-09T10:04:47;100649.88;;;18.62;100.00
48636;BME280;34429;52.332;5.614;2022-09-09T10:07:19;100652.25;;;18.86;100.00
48636;BME280;34429;52.332;5.614;2022-09-09T10:09:51;100650.53;;;18.85;100.00
48636;BME280;34429;52.332;5.614;2022-09-09T10:12:30;100645.59;;;18.74;100.00
48636;BME280;34429;52.332;5.614;2022-09-09T10:15:10;100641.72;;;18.62;100.00
48636;BME280;34429;52.332;5.614;2022-09-09T10:17:52;100641.69;;;19.05;100.00
48636;BME280;34429;52.332;5.614;2022-09-09T10:20:27;100641.06;;;19.03;100.00
48636;BME280;34429;52.332;5.614;2022-09-09T10:23:08;100635.22;;;19.06;100.00
48636;BME280;34429;52.332;5.614;2022-09-09T10:25:53;100638.22;;;18.89;100.00
48636;BME280;34429;52.332;5.614;2022-09-09T10:28:36;100639.50;;;18.72;100.00
48636;BME280;34429;52.332;5.614;2022-09-09T10:31:18;100637.72;;;19.01;100.00
48636;BME280;34429;52.332;5.614;2022-09-09T10:33:54;100641.56;;;19.13;100.00
48636;BME280;34429;52.332;5.614;2022-09-09T10:36:27;100637.72;;;19.01;100.00
48636;BME280;34429;52.332;5.614;2022-09-09T10:38:59;100639.84;;;19.05;100.00
48636;BME280;34429;52.332;5.614;2022-09-09T10:41:42;100632.56;;;19.13;100.00
48636;BME280;34429;52.332;5.614;2022-09-09T10:44:40;100635.72;;;19.16;100.00
48636;BME280;34429;52.332;5.614;2022-09-09T10:47:28;100638.31;;;19.24;100.00
48636;BME280;34429;52.332;5.614;2022-09-09T10:50:18;100633.88;;;19.23;100.00
48636;BME280;34429;52.332;5.614;2022-09-09T10:52:58;100631.31;;;19.50;100.00
48636;BME280;34429;52.332;5.614;2022-09-09T10:55:36;100632.06;;;19.72;100.00
48636;BME280;34429;52.332;5.614;2022-09-09T10:58:10;100632.88;;;19.31;100.00
48636;BME280;34429;52.332;5.614;2022-09-09T11:00:44;100640.16;;;18.96;100.00
48636;BME280;34429;52.332;5.614;2022-09-09T11:03:21;100647.72;;;18.94;100.00
48636;BME280;34429;52.332;5.614;2022-09-09T11:05:53;100648.63;;;19.01;100.00
48636;BME280;34429;52.332;5.614;2022-09-09T11:08:25;100644.09;;;18.86;100.00
48636;BME280;34429;52.332;5.614;2022-09-09T11:10:58;100638.22;;;18.89;100.00
48636;BME280;34429;52.332;5.614;2022-09-09T11:13:35;100650.59;;;18.70;100.00
48636;BME280;34429;52.332;5.614;2022-09-09T11:16:20;100652.63;;;18.62;100.00
48636;BME280;34429;52.332;5.614;2022-09-09T11:18:56;100660.91;;;18.53;100.00
48636;BME280;34429;52.332;5.614;2022-09-09T11:21:29;100655.63;;;18.88;100.00
48636;BME280;34429;52.332;5.614;2022-09-09T11:24:01;100658.34;;;19.10;100.00
48636;BME280;34429;52.332;5.614;2022-09-09T11:26:33;100649.53;;;19.08;100.00
48636;BME280;34429;52.332;5.614;2022-09-09T11:29:21;100655.78;;;19.30;100.00
48636;BME280;34429;52.332;5.614;2022-09-09T11:32:01;100653.41;;;18.99;100.00
48636;BME280;34429;52.332;5.614;2022-09-09T11:34:44;100646.13;;;19.06;100.00
48636;BME280;34429;52.332;5.614;2022-09-09T11:40:19;100626.19;;;20.10;100.00
48636;BME280;34429;52.332;5.614;2022-09-09T11:43:01;100624.34;;;20.24;100.00
48636;BME280;34429;52.332;5.614;2022-09-09T11:45:32;100621.66;;;20.38;100.00
48636;BME280;34429;52.332;5.614;2022-09-09T11:48:02;100631.91;;;20.16;100.00
48636;BME280;34429;52.332;5.614;2022-09-09T11:50:36;100633.38;;;20.25;100.00
48636;BME280;34429;52.332;5.614;2022-09-09T11:53:21;100623.25;;;20.05;100.00
48636;BME280;34429;52.332;5.614;2022-09-09T11:56:09;100626.22;;;20.24;100.00
48636;BME280;34429;52.332;5.614;2022-09-09T11:58:41;100616.59;;;20.35;100.00
48636;BME280;34429;52.332;5.614;2022-09-09T12:01:29;100615.53;;;20.29;100.00
48636;BME280;34429;52.332;5.614;2022-09-09T12:04:14;100626.75;;;19.92;100.00
48636;BME280;34429;52.332;5.614;2022-09-09T12:06:50;100609.28;;;19.87;100.00
48636;BME280;34429;52.332;5.614;2022-09-09T12:09:25;100616.56;;;19.73;100.00
48636;BME280;34429;52.332;5.614;2022-09-09T12:12:21;100610.56;;;19.91;100.00
48636;BME280;34429;52.332;5.614;2022-09-09T12:15:03;100616.94;;;19.70;100.00
48636;BME280;34429;52.332;5.614;2022-09-09T12:17:40;100614.06;;;19.78;100.00
48636;BME280;34429;52.332;5.614;2022-09-09T12:20:13;100606.81;;;19.57;100.00
48636;BME280;34429;52.332;5.614;2022-09-09T12:25:52;100613.66;;;19.81;100.00
48636;BME280;34429;52.332;5.614;2022-09-09T12:28:27;100605.97;;;20.05;100.00
48636;BME280;34429;52.332;5.614;2022-09-09T12:31:06;100609.81;;;20.17;100.00
48636;BME280;34429;52.332;5.614;2022-09-09T12:33:40;100601.88;;;20.29;100.00
48636;BME280;34429;52.332;5.614;2022-09-09T12:36:13;100604.31;;;20.04;100.00
48636;BME280;34429;52.332;5.614;2022-09-09T12:38:47;100612.22;;;19.92;100.00
48636;BME280;34429;52.332;5.614;2022-09-09T12:41:22;100613.41;;;19.76;100.00
48636;BME280;34429;52.332;5.614;2022-09-09T12:43:51;100615.97;;;19.49;100.00
48636;BME280;34429;52.332;5.614;2022-09-09T12:46:28;100605.00;;;19.36;100.00
48636;BME280;34429;52.332;5.614;2022-09-09T12:48:58;100610.66;;;19.06;100.00
48636;BME280;34429;52.332;5.614;2022-09-09T12:51:29;100611.47;;;19.00;100.00
48636;BME280;34429;52.332;5.614;2022-09-09T12:54:01;100608.13;;;18.83;100.00
48636;BME280;34429;52.332;5.614;2022-09-09T12:56:31;100604.97;;;18.79;100.00
48636;BME280;34429;52.332;5.614;2022-09-09T12:59:00;100609.13;;;18.53;100.00
48636;BME280;34429;52.332;5.614;2022-09-09T13:01:30;100612.25;;;18.72;100.00
48636;BME280;34429;52.332;5.614;2022-09-09T13:03:59;100617.19;;;18.62;100.00
48636;BME280;34429;52.332;5.614;2022-09-09T13:06:29;100608.50;;;19.23;100.00
48636;BME280;34429;52.332;5.614;2022-09-09T13:09:02;100601.97;;;19.59;100.00
48636;BME280;34429;52.332;5.614;2022-09-09T13:11:35;100605.94;;;19.91;100.00
48636;BME280;34429;52.332;5.614;2022-09-09T13:14:04;100604.66;;;19.87;100.00
48636;BME280;34429;52.332;5.614;2022-09-09T13:16:35;100601.41;;;19.70;100.00
48636;BME280;34429;52.332;5.614;2022-09-09T13:19:07;100599.94;;;19.68;100.00
48636;BME280;34429;52.332;5.614;2022-09-09T13:21:38;100600.19;;;19.73;100.00
48636;BME280;34429;52.332;5.614;2022-09-09T13:24:25;100590.59;;;19.84;100.00